sensor_id;sensor_type;location;lat;lon;timestamp;pressure;altitude;pressure_sealevel;temperature;humidity
39739;BME280;25422;48.286;8.484;2023-04-19T00:02:22;94473.31;;;6.21;100.00
39739;BME280;25422;48.286;8.484;2023-04-19T00:04:48;94468.25;;;6.19;100.00
39739;BME280;25422;48.286;8.484;2023-04-19T00:07:13;94473.16;;;6.22;100.00
39739;BME280;25422;48.286;8.484;2023-04-19T00:09:39;94464.13;;;6.27;100.00
39739;BME280;25422;48.286;8.484;2023-04-19T00:12:04;94461.00;;;6.23;100.00
39739;BME280;25422;48.286;8.484;2023-04-19T00:14:30;94463.19;;;6.18;100.00
39739;BME280;25422;48.286;8.484;2023-04-19T00:16:55;94461.81;;;6.14;100.00
39739;BME280;25422;48.286;8.484;2023-04-19T00:19:21;94464.41;;;6.14;100.00
39739;BME280;25422;48.286;8.484;2023-04-19T00:21:47;94457.56;;;6.13;100.00
39739;BME280;25422;48.286;8.484;2023-04-19T00:24:13;94454.31;;;6.11;100.00
39739;BME280;25422;48.286;8.484;2023-04-19T00:26:38;94453.59;;;6.08;100.00
39739;BME280;25422;48.286;8.484;2023-04-19T00:29:05;94454.31;;;6.11;100.00
39739;BME280;25422;48.286;8.484;2023-04-19T00:31:31;94447.59;;;6.08;100.00
39739;BME280;25422;48.286;8.484;2023-04-19T00:33:57;94448.03;;;6.13;100.00
39739;BME280;25422;48.286;8.484;2023-04-19T00:36:25;94442.41;;;6.08;100.00
39739;BME280;25422;48.286;8.484;2023-04-19T00:38:51;94446.38;;;6.12;100.00
39739;BME280;25422;48.286;8.484;2023-04-19T00:41:17;94442.28;;;6.10;100.00
39739;BME280;25422;48.286;8.484;2023-04-19T00:43:42;94445.25;;;6.05;100.00
39739;BME280;25422;48.286;8.484;2023-04-19T00:46:08;94447.03;;;6.04;100.00
39739;BME280;25422;48.286;8.484;2023-04-19T00:48:34;94447.03;;;6.04;100.00
39739;BME280;25422;48.286;8.484;2023-04-19T00:51:03;94438.03;;;6.08;100.00
39739;BME280;25422;48.286;8.484;2023-04-19T00:53:29;94443.06;;;6.00;100.00
39739;BME280;25422;48.286;8.484;2023-04-19T00:55:56;94433.50;;;6.01;100.00
39739;BME280;25422;48.286;8.484;2023-04-19T00:58:22;94438.59;;;6.02;100.00
39739;BME280;25422;48.286;8.484;2023-04-19T01:00:48;94429.50;;;5.97;100.00
39739;BME280;25422;48.286;8.484;2023-04-19T01:03:14;94429.28;;;6.00;100.00
39739;BME280;25422;48.286;8.484;2023-04-19T01:05:41;94429.63;;;5.95;100.00
39739;BME280;25422;48.286;8.484;2023-04-19T01:08:11;94430.34;;;5.97;100.00
39739;BME280;25422;48.286;8.484;2023-04-19T01:10:36;94429.09;;;5.91;100.00
39739;BME280;25422;48.286;8.484;2023-04-19T01:13:02;94426.38;;;5.93;100.00
39739;BME280;25422;48.286;8.484;2023-04-19T01:15:27;94431.19;;;5.98;100.00
39739;BME280;25422;48.286;8.484;2023-04-19T01:17:53;94426.38;;;5.93;100.00
39739;BME280;25422;48.286;8.484;2023-04-19T01:20:20;94423.50;;;5.86;100.00
39739;BME280;25422;48.286;8.484;2023-04-19T01:22:45;94418.69;;;5.82;100.00
39739;BME280;25422;48.286;8.484;2023-04-19T01:25:10;94427.31;;;5.82;100.00
39739;BME280;25422;48.286;8.484;2023-04-19T01:27:36;94418.69;;;5.82;100.00
39739;BME280;25422;48.286;8.484;2023-04-19T01:30:02;94417.59;;;5.84;100.00
39739;BME280;25422;48.286;8.484;2023-04-19T01:32:27;94407.34;;;5.83;100.00
39739;BME280;25422;48.286;8.484;2023-04-19T01:34:54;94416.34;;;5.79;100.00
39739;BME280;25422;48.286;8.484;2023-04-19T01:37:20;94406.69;;;5.81;100.00
39739;BME280;25422;48.286;8.484;2023-04-19T01:39:45;94414.56;;;5.79;100.00
39739;BME280;25422;48.286;8.484;2023-04-19T01:42:10;94411.88;;;5.81;100.00
39739;BME280;25422;48.286;8.484;2023-04-19T01:44:36;94411.72;;;5.72;100.00
39739;BME280;25422;48.286;8.484;2023-04-19T01:47:01;94407.47;;;5.71;100.00
39739;BME280;25422;48.286;8.484;2023-04-19T01:49:27;94400.50;;;5.72;100.00
39739;BME280;25422;48.286;8.484;2023-04-19T01:51:52;94402.16;;;5.73;100.00
39739;BME280;25422;48.286;8.484;2023-04-19T01:54:19;94396.25;;;5.71;100.00
39739;BME280;25422;48.286;8.484;2023-04-19T01:56:44;94398.47;;;5.66;100.00
39739;BME280;25422;48.286;8.484;2023-04-19T01:59:10;94390.09;;;5.62;100.00
39739;BME280;25422;48.286;8.484;2023-04-19T02:01:35;94395.28;;;5.62;100.00
39739;BME280;25422;48.286;8.484;2023-04-19T02:04:01;94390.66;;;5.66;100.00
39739;BME280;25422;48.286;8.484;2023-04-19T02:06:27;94382.59;;;5.59;100.00
39739;BME280;25422;48.286;8.484;2023-04-19T02:08:52;94386.13;;;5.58;100.00
39739;BME280;25422;48.286;8.484;2023-04-19T02:11:18;94383.81;;;5.55;100.00
39739;BME280;25422;48.286;8.484;2023-04-19T02:13:43;94384.19;;;5.50;100.00
39739;BME280;25422;48.286;8.484;2023-04-19T02:16:09;94380.38;;;5.45;100.00
39739;BME280;25422;48.286;8.484;2023-04-19T02:18:35;94372.44;;;5.36;100.00
39739;BME280;25422;48.286;8.484;2023-04-19T02:21:06;94383.31;;;5.30;100.00
39739;BME280;25422;48.286;8.484;2023-04-19T02:23:32;94377.84;;;5.23;100.00
39739;BME280;25422;48.286;8.484;2023-04-19T02:25:58;94374.00;;;5.18;100.00
39739;BME280;25422;48.286;8.484;2023-04-19T02:28:27;94371.81;;;5.13;100.00
39739;BME280;25422;48.286;8.484;2023-04-19T02:30:52;94369.75;;;5.07;100.00
39739;BME280;25422;48.286;8.484;2023-04-19T02:33:17;94373.97;;;5.08;100.00
39739;BME280;25422;48.286;8.484;2023-04-19T02:35:43;94370.59;;;5.07;100.00
39739;BME280;25422;48.286;8.484;2023-04-19T02:38:09;94369.59;;;5.09;100.00
39739;BME280;25422;48.286;8.484;2023-04-19T02:40:34;94368.00;;;5.07;100.00
39739;BME280;25422;48.286;8.484;2023-04-19T02:43:00;94378.22;;;5.09;100.00
39739;BME280;25422;48.286;8.484;2023-04-19T02:45:25;94372.19;;;5.09;100.00
39739;BME280;25422;48.286;8.484;2023-04-19T02:47:53;94377.00;;;5.13;100.00
39739;BME280;25422;48.286;8.484;2023-04-19T02:50:18;94382.50;;;5.20;100.00
39739;BME280;25422;48.286;8.484;2023-04-19T02:52:47;94373.63;;;5.22;100.00
39739;BME280;25422;48.286;8.484;2023-04-19T02:55:13;94375.94;;;5.26;100.00
39739;BME280;25422;48.286;8.484;2023-04-19T02:57:39;94374.16;;;5.26;100.00
39739;BME280;25422;48.286;8.484;2023-04-19T03:00:08;94368.47;;;5.32;100.00
39739;BME280;25422;48.286;8.484;2023-04-19T03:02:36;94372.28;;;5.28;100.00
39739;BME280;25422;48.286;8.484;2023-04-19T03:05:02;94375.69;;;5.29;100.00
39739;BME280;25422;48.286;8.484;2023-04-19T03:07:29;94377.47;;;5.28;100.00
39739;BME280;25422;48.286;8.484;2023-04-19T03:09:54;94368.47;;;5.32;100.00
39739;BME280;25422;48.286;8.484;2023-04-19T03:12:20;94376.25;;;5.32;100.00
39739;BME280;25422;48.286;8.484;2023-04-19T03:14:45;94372.00;;;5.31;100.00
39739;BME280;25422;48.286;8.484;2023-04-19T03:17:11;94360.13;;;5.38;100.00
39739;BME280;25422;48.286;8.484;2023-04-19T03:19:36;94366.53;;;5.34;100.00
39739;BME280;25422;48.286;8.484;2023-04-19T03:22:03;94357.94;;;5.34;100.00
39739;BME280;25422;48.286;8.484;2023-04-19T03:24:30;94355.50;;;5.32;100.00
39739;BME280;25422;48.286;8.484;2023-04-19T03:26:59;94356.72;;;5.28;100.00
39739;BME280;25422;48.286;8.484;2023-04-19T03:29:28;94355.34;;;5.24;100.00
39739;BME280;25422;48.286;8.484;2023-04-19T03:31:58;94356.28;;;5.23;100.00
39739;BME280;25422;48.286;8.484;2023-04-19T03:34:24;94353.03;;;5.21;100.00
39739;BME280;25422;48.286;8.484;2023-04-19T03:36:49;94353.97;;;5.20;100.00
39739;BME280;25422;48.286;8.484;2023-04-19T03:39:14;94356.56;;;5.20;100.00
39739;BME280;25422;48.286;8.484;2023-04-19T03:41:43;94343.44;;;5.21;100.00
39739;BME280;25422;48.286;8.484;2023-04-19T03:44:32;94347.00;;;5.20;100.00
39739;BME280;25422;48.286;8.484;2023-04-19T03:47:00;94347.81;;;5.21;100.00
39739;BME280;25422;48.286;8.484;2023-04-19T03:49:30;94355.47;;;5.22;100.00
39739;BME280;25422;48.286;8.484;2023-04-19T03:52:06;94352.19;;;5.20;100.00
39739;BME280;25422;48.286;8.484;2023-04-19T03:54:32;94346.44;;;5.17;100.00
39739;BME280;25422;48.286;8.484;2023-04-19T03:56:58;94344.81;;;5.16;100.00
39739;BME280;25422;48.286;8.484;2023-04-19T03:59:24;94340.44;;;5.16;100.00
39739;BME280;25422;48.286;8.484;2023-04-19T04:01:50;94345.31;;;5.10;100.00
39739;BME280;25422;48.286;8.484;2023-04-19T04:04:16;94348.19;;;5.06;100.00
39739;BME280;25422;48.286;8.484;2023-04-19T04:06:43;94351.22;;;5.12;100.00
39739;BME280;25422;48.286;8.484;2023-04-19T04:09:08;94352.28;;;5.09;100.00
39739;BME280;25422;48.286;8.484;2023-04-19T04:11:33;94347.78;;;5.11;100.00
39739;BME280;25422;48.286;8.484;2023-04-19T04:13:59;94344.09;;;5.14;100.00
39739;BME280;25422;48.286;8.484;2023-04-19T04:16:27;94343.66;;;5.09;100.00
39739;BME280;25422;48.286;8.484;2023-04-19T04:18:54;94343.44;;;5.12;100.00
39739;BME280;25422;48.286;8.484;2023-04-19T04:21:23;94348.75;;;5.10;100.00
39739;BME280;25422;48.286;8.484;2023-04-19T04:23:49;94348.22;;;5.16;100.00
39739;BME280;25422;48.286;8.484;2023-04-19T04:26:22;94353.25;;;5.18;100.00
39739;BME280;25422;48.286;8.484;2023-04-19T04:29:01;94350.38;;;5.11;100.00
39739;BME280;25422;48.286;8.484;2023-04-19T04:31:28;94351.06;;;5.13;100.00
39739;BME280;25422;48.286;8.484;2023-04-19T04:33:53;94356.41;;;5.12;100.00
39739;BME280;25422;48.286;8.484;2023-04-19T04:36:20;94357.22;;;5.12;100.00
39739;BME280;25422;48.286;8.484;2023-04-19T04:38:49;94357.78;;;5.16;100.00
39739;BME280;25422;48.286;8.484;2023-04-19T04:41:14;94357.78;;;5.16;100.00
39739;BME280;25422;48.286;8.484;2023-04-19T04:43:40;94361.88;;;5.18;100.00
39739;BME280;25422;48.286;8.484;2023-04-19T04:46:06;94357.91;;;5.14;100.00
39739;BME280;25422;48.286;8.484;2023-04-19T04:48:37;94356.94;;;5.15;100.00
39739;BME280;25422;48.286;8.484;2023-04-19T04:51:03;94360.09;;;5.19;100.00
39739;BME280;25422;48.286;8.484;2023-04-19T04:53:30;94354.63;;;5.22;100.00
39739;BME280;25422;48.286;8.484;2023-04-19T04:55:57;94364.47;;;5.18;100.00
39739;BME280;25422;48.286;8.484;2023-04-19T04:58:22;94365.00;;;5.22;100.00
39739;BME280;25422;48.286;8.484;2023-04-19T05:01:00;94359.00;;;5.21;100.00
39739;BME280;25422;48.286;8.484;2023-04-19T05:03:27;94361.09;;;5.28;100.00
39739;BME280;25422;48.286;8.484;2023-04-19T05:05:56;94355.75;;;5.29;100.00
39739;BME280;25422;48.286;8.484;2023-04-19T05:08:24;94361.75;;;5.30;100.00
39739;BME280;25422;48.286;8.484;2023-04-19T05:10:51;94360.97;;;5.39;100.00
39739;BME280;25422;48.286;8.484;2023-04-19T05:13:20;94357.69;;;5.37;100.00
39739;BME280;25422;48.286;8.484;2023-04-19T05:15:45;94363.13;;;5.34;100.00
39739;BME280;25422;48.286;8.484;2023-04-19T05:18:12;94360.41;;;5.35;100.00
39739;BME280;25422;48.286;8.484;2023-04-19T05:20:38;94365.31;;;5.38;100.00
39739;BME280;25422;48.286;8.484;2023-04-19T05:23:10;94367.13;;;5.48;100.00
39739;BME280;25422;48.286;8.484;2023-04-19T05:25:36;94359.75;;;5.43;100.00
39739;BME280;25422;48.286;8.484;2023-04-19T05:28:02;94360.19;;;5.48;100.00
39739;BME280;25422;48.286;8.484;2023-04-19T05:30:35;94360.03;;;5.50;100.00
39739;BME280;25422;48.286;8.484;2023-04-19T05:33:00;94365.91;;;5.52;100.00
39739;BME280;25422;48.286;8.484;2023-04-19T05:35:26;94363.72;;;5.57;100.00
39739;BME280;25422;48.286;8.484;2023-04-19T05:37:51;94357.44;;;5.50;100.00
39739;BME280;25422;48.286;8.484;2023-04-19T05:40:17;94368.13;;;5.66;100.00
39739;BME280;25422;48.286;8.484;2023-04-19T05:42:43;94365.50;;;5.56;100.00
39739;BME280;25422;48.286;8.484;2023-04-19T05:45:09;94365.91;;;5.52;100.00
39739;BME280;25422;48.286;8.484;2023-04-19T05:47:35;94365.09;;;5.51;100.00
39739;BME280;25422;48.286;8.484;2023-04-19T05:50:02;94367.28;;;5.56;100.00
39739;BME280;25422;48.286;8.484;2023-04-19T05:52:34;94373.16;;;5.58;100.00
39739;BME280;25422;48.286;8.484;2023-04-19T05:55:01;94371.66;;;5.55;100.00
39739;BME280;25422;48.286;8.484;2023-04-19T05:57:27;94369.19;;;5.64;100.00
39739;BME280;25422;48.286;8.484;2023-04-19T05:59:53;94375.53;;;5.81;100.00
39739;BME280;25422;48.286;8.484;2023-04-19T06:02:22;94374.81;;;5.79;100.00
39739;BME280;25422;48.286;8.484;2023-04-19T06:04:48;94369.75;;;5.67;100.00
39739;BME280;25422;48.286;8.484;2023-04-19T06:07:13;94368.81;;;5.68;100.00
39739;BME280;25422;48.286;8.484;2023-04-19T06:09:39;94375.19;;;5.64;100.00
39739;BME280;25422;48.286;8.484;2023-04-19T06:12:05;94371.00;;;5.63;100.00
39739;BME280;25422;48.286;8.484;2023-04-19T06:14:31;94370.72;;;5.66;100.00
39739;BME280;25422;48.286;8.484;2023-04-19T06:16:57;94369.75;;;5.67;100.00
39739;BME280;25422;48.286;8.484;2023-04-19T06:19:22;94374.97;;;5.67;100.00
39739;BME280;25422;48.286;8.484;2023-04-19T06:21:48;94383.00;;;5.64;100.00
39739;BME280;25422;48.286;8.484;2023-04-19T06:24:13;94379.88;;;5.70;100.00
39739;BME280;25422;48.286;8.484;2023-04-19T06:26:39;94383.41;;;5.79;100.00
39739;BME280;25422;48.286;8.484;2023-04-19T06:29:04;94379.47;;;5.95;100.00
39739;BME280;25422;48.286;8.484;2023-04-19T06:31:31;94384.81;;;5.93;100.00
39739;BME280;25422;48.286;8.484;2023-04-19T06:33:57;94382.09;;;5.85;100.00
39739;BME280;25422;48.286;8.484;2023-04-19T06:36:23;94384.72;;;6.04;100.00
39739;BME280;25422;48.286;8.484;2023-04-19T06:38:48;94381.44;;;6.02;100.00
39739;BME280;25422;48.286;8.484;2023-04-19T06:41:14;94379.66;;;6.03;100.00
39739;BME280;25422;48.286;8.484;2023-04-19T06:43:39;94380.06;;;5.98;100.00
39739;BME280;25422;48.286;8.484;2023-04-19T06:46:07;94384.56;;;6.16;100.00
39739;BME280;25422;48.286;8.484;2023-04-19T06:48:33;94392.91;;;6.29;100.00
39739;BME280;25422;48.286;8.484;2023-04-19T06:50:59;94381.97;;;6.06;100.00
39739;BME280;25422;48.286;8.484;2023-04-19T06:53:24;94390.97;;;6.12;100.00
39739;BME280;25422;48.286;8.484;2023-04-19T06:56:02;94383.59;;;6.17;100.00
39739;BME280;25422;48.286;8.484;2023-04-19T06:58:28;94382.13;;;6.24;100.00
39739;BME280;25422;48.286;8.484;2023-04-19T07:00:54;94383.19;;;6.12;100.00
39739;BME280;25422;48.286;8.484;2023-04-19T07:03:20;94387.16;;;6.16;100.00
39739;BME280;25422;48.286;8.484;2023-04-19T07:05:46;94384.53;;;5.96;100.00
39739;BME280;25422;48.286;8.484;2023-04-19T07:08:11;94383.16;;;5.92;100.00
39739;BME280;25422;48.286;8.484;2023-04-19T07:10:37;94387.03;;;5.98;100.00
39739;BME280;25422;48.286;8.484;2023-04-19T07:13:02;94384.25;;;5.89;100.00
39739;BME280;25422;48.286;8.484;2023-04-19T07:15:27;94390.41;;;5.88;100.00
39739;BME280;25422;48.286;8.484;2023-04-19T07:17:53;94385.34;;;5.87;100.00
39739;BME280;25422;48.286;8.484;2023-04-19T07:20:19;94388.22;;;5.94;100.00
39739;BME280;25422;48.286;8.484;2023-04-19T07:22:44;94388.09;;;5.95;100.00
39739;BME280;25422;48.286;8.484;2023-04-19T07:25:10;94381.38;;;5.83;100.00
39739;BME280;25422;48.286;8.484;2023-04-19T07:27:35;94384.81;;;5.93;100.00
39739;BME280;25422;48.286;8.484;2023-04-19T07:30:00;94385.28;;;5.98;100.00
39739;BME280;25422;48.286;8.484;2023-04-19T07:32:26;94380.84;;;5.89;100.00
39739;BME280;25422;48.286;8.484;2023-04-19T07:34:52;94380.75;;;6.00;100.00
39739;BME280;25422;48.286;8.484;2023-04-19T07:37:18;94372.78;;;5.92;100.00
39739;BME280;25422;48.286;8.484;2023-04-19T07:39:44;94375.09;;;5.85;100.00
39739;BME280;25422;48.286;8.484;2023-04-19T07:42:09;94376.63;;;5.88;100.00
39739;BME280;25422;48.286;8.484;2023-04-19T07:44:35;94376.47;;;5.89;100.00
39739;BME280;25422;48.286;8.484;2023-04-19T07:47:02;94373.06;;;5.89;100.00
39739;BME280;25422;48.286;8.484;2023-04-19T07:49:28;94371.56;;;5.96;100.00
39739;BME280;25422;48.286;8.484;2023-04-19T07:51:57;94379.22;;;5.98;100.00
39739;BME280;25422;48.286;8.484;2023-04-19T07:54:23;94372.66;;;6.03;100.00
39739;BME280;25422;48.286;8.484;2023-04-19T07:56:48;94371.84;;;6.13;100.00
39739;BME280;25422;48.286;8.484;2023-04-19T07:59:14;94377.19;;;6.21;100.00
39739;BME280;25422;48.286;8.484;2023-04-19T08:01:40;94366.13;;;6.19;100.00
39739;BME280;25422;48.286;8.484;2023-04-19T08:04:06;94369.94;;;6.24;100.00
39739;BME280;25422;48.286;8.484;2023-04-19T08:06:32;94370.75;;;6.45;100.00
39739;BME280;25422;48.286;8.484;2023-04-19T08:08:57;94366.75;;;6.50;100.00
39739;BME280;25422;48.286;8.484;2023-04-19T08:11:23;94367.56;;;6.61;100.00
39739;BME280;25422;48.286;8.484;2023-04-19T08:13:49;94369.66;;;6.85;100.00
39739;BME280;25422;48.286;8.484;2023-04-19T08:16:15;94363.09;;;6.81;100.00
39739;BME280;25422;48.286;8.484;2023-04-19T08:18:40;94364.00;;;6.99;100.00
39739;BME280;25422;48.286;8.484;2023-04-19T08:21:06;94362.16;;;7.19;100.00
39739;BME280;25422;48.286;8.484;2023-04-19T08:23:31;94361.66;;;7.62;100.00
39739;BME280;25422;48.286;8.484;2023-04-19T08:25:57;94361.66;;;7.80;100.00
39739;BME280;25422;48.286;8.484;2023-04-19T08:28:22;94361.41;;;7.55;100.00
39739;BME280;25422;48.286;8.484;2023-04-19T08:30:48;94359.59;;;7.37;100.00
39739;BME280;25422;48.286;8.484;2023-04-19T08:33:13;94367.84;;;7.33;100.00
39739;BME280;25422;48.286;8.484;2023-04-19T08:35:40;94365.59;;;7.38;100.00
39739;BME280;25422;48.286;8.484;2023-04-19T08:38:06;94363.06;;;7.74;100.00
39739;BME280;25422;48.286;8.484;2023-04-19T08:40:31;94373.66;;;7.45;100.00
39739;BME280;25422;48.286;8.484;2023-04-19T08:42:57;94368.09;;;7.39;100.00
39739;BME280;25422;48.286;8.484;2023-04-19T08:45:25;94363.47;;;7.51;100.00
39739;BME280;25422;48.286;8.484;2023-04-19T08:47:51;94360.31;;;7.57;100.00
39739;BME280;25422;48.286;8.484;2023-04-19T08:50:19;94361.34;;;7.65;100.00
39739;BME280;25422;48.286;8.484;2023-04-19T08:52:45;94362.81;;;7.95;100.00
39739;BME280;25422;48.286;8.484;2023-04-19T08:55:11;94374.09;;;8.04;100.00
39739;BME280;25422;48.286;8.484;2023-04-19T08:57:37;94359.59;;;8.19;100.00
39739;BME280;25422;48.286;8.484;2023-04-19T09:00:03;94359.13;;;7.88;100.00
39739;BME280;25422;48.286;8.484;2023-04-19T09:02:48;94359.94;;;7.70;100.00
39739;BME280;25422;48.286;8.484;2023-04-19T09:05:15;94359.75;;;7.54;100.00
39739;BME280;25422;48.286;8.484;2023-04-19T09:07:40;94359.59;;;7.83;100.00
39739;BME280;25422;48.286;8.484;2023-04-19T09:10:11;94353.16;;;8.14;100.00
39739;BME280;25422;48.286;8.484;2023-04-19T09:12:38;94354.78;;;8.33;100.00
39739;BME280;25422;48.286;8.484;2023-04-19T09:15:05;94341.81;;;8.59;100.00
39739;BME280;25422;48.286;8.484;2023-04-19T09:17:33;94339.34;;;8.84;100.00
39739;BME280;25422;48.286;8.484;2023-04-19T09:19:59;94339.19;;;8.85;100.00
39739;BME280;25422;48.286;8.484;2023-04-19T09:22:25;94340.41;;;9.34;100.00
39739;BME280;25422;48.286;8.484;2023-04-19T09:24:51;94338.97;;;9.48;100.00
39739;BME280;25422;48.286;8.484;2023-04-19T09:27:34;94338.47;;;9.44;100.00
39739;BME280;25422;48.286;8.484;2023-04-19T09:30:02;94337.72;;;9.85;100.00
39739;BME280;25422;48.286;8.484;2023-04-19T09:32:40;94336.22;;;9.66;100.00
39739;BME280;25422;48.286;8.484;2023-04-19T09:35:09;94336.41;;;9.13;100.00
39739;BME280;25422;48.286;8.484;2023-04-19T09:37:34;94338.09;;;9.31;100.00
39739;BME280;25422;48.286;8.484;2023-04-19T09:40:41;94335.00;;;9.27;100.00
39739;BME280;25422;48.286;8.484;2023-04-19T09:43:01;94327.72;;;9.47;100.00
39739;BME280;25422;48.286;8.484;2023-04-19T09:45:41;94319.38;;;9.52;100.00
39739;BME280;25422;48.286;8.484;2023-04-19T09:48:07;94307.22;;;9.77;100.00
39739;BME280;25422;48.286;8.484;2023-04-19T09:50:34;94314.41;;;10.24;100.00
39739;BME280;25422;48.286;8.484;2023-04-19T09:53:01;94305.66;;;10.98;100.00
39739;BME280;25422;48.286;8.484;2023-04-19T09:55:26;94306.66;;;11.28;100.00
39739;BME280;25422;48.286;8.484;2023-04-19T09:57:52;94306.16;;;11.96;100.00
39739;BME280;25422;48.286;8.484;2023-04-19T10:00:18;94305.66;;;11.38;100.00
39739;BME280;25422;48.286;8.484;2023-04-19T10:02:46;94307.84;;;11.18;100.00
39739;BME280;25422;48.286;8.484;2023-04-19T10:05:19;94308.66;;;10.62;100.00
39739;BME280;25422;48.286;8.484;2023-04-19T10:07:45;94311.81;;;10.16;100.00
39739;BME280;25422;48.286;8.484;2023-04-19T10:10:14;94314.56;;;9.90;100.00
39739;BME280;25422;48.286;8.484;2023-04-19T10:12:44;94307.72;;;10.05;100.00
39739;BME280;25422;48.286;8.484;2023-04-19T10:15:12;94301.66;;;9.88;100.00
39739;BME280;25422;48.286;8.484;2023-04-19T10:17:38;94303.63;;;9.78;100.00
39739;BME280;25422;48.286;8.484;2023-04-19T10:20:07;94305.91;;;9.73;100.00
39739;BME280;25422;48.286;8.484;2023-04-19T10:22:35;94297.00;;;9.49;100.00
39739;BME280;25422;48.286;8.484;2023-04-19T10:25:13;94294.44;;;9.06;100.00
39739;BME280;25422;48.286;8.484;2023-04-19T10:27:43;94293.50;;;9.16;100.00
39739;BME280;25422;48.286;8.484;2023-04-19T10:30:21;94295.50;;;9.30;100.00
39739;BME280;25422;48.286;8.484;2023-04-19T10:32:59;94295.59;;;9.71;100.00
39739;BME280;25422;48.286;8.484;2023-04-19T10:35:36;94289.25;;;10.07;100.00
39739;BME280;25422;48.286;8.484;2023-04-19T10:43:15;94277.41;;;10.85;100.00
39739;BME280;25422;48.286;8.484;2023-04-19T10:45:42;94288.97;;;10.99;100.00
39739;BME280;25422;48.286;8.484;2023-04-19T10:53:54;94277.22;;;10.87;100.00
39739;BME280;25422;48.286;8.484;2023-04-19T10:56:56;94271.97;;;11.58;100.00
39739;BME280;25422;48.286;8.484;2023-04-19T10:59:23;94261.69;;;11.56;100.00
39739;BME280;25422;48.286;8.484;2023-04-19T11:01:51;94264.38;;;11.71;100.00
39739;BME280;25422;48.286;8.484;2023-04-19T11:09:25;94264.84;;;10.64;100.00
39739;BME280;25422;48.286;8.484;2023-04-19T11:11:58;94262.44;;;10.54;100.00
39739;BME280;25422;48.286;8.484;2023-04-19T11:14:24;94255.03;;;10.58;100.00
39739;BME280;25422;48.286;8.484;2023-04-19T11:16:50;94249.13;;;10.72;100.00
39739;BME280;25422;48.286;8.484;2023-04-19T11:19:16;94251.19;;;10.93;100.00
39739;BME280;25422;48.286;8.484;2023-04-19T11:21:43;94251.81;;;10.95;100.00
39739;BME280;25422;48.286;8.484;2023-04-19T11:24:15;94247.19;;;11.14;100.00
39739;BME280;25422;48.286;8.484;2023-04-19T11:26:45;94252.41;;;11.14;100.00
39739;BME280;25422;48.286;8.484;2023-04-19T11:29:11;94247.66;;;11.09;100.00
39739;BME280;25422;48.286;8.484;2023-04-19T11:31:37;94241.41;;;11.50;100.00
39739;BME280;25422;48.286;8.484;2023-04-19T11:34:03;94241.13;;;11.45;100.00
39739;BME280;25422;48.286;8.484;2023-04-19T11:36:30;94233.19;;;11.30;100.00
39739;BME280;25422;48.286;8.484;2023-04-19T11:38:56;94232.31;;;11.38;100.00
39739;BME280;25422;48.286;8.484;2023-04-19T11:41:22;94219.84;;;11.86;100.00
39739;BME280;25422;48.286;8.484;2023-04-19T11:43:47;94213.75;;;12.32;100.00
39739;BME280;25422;48.286;8.484;2023-04-19T11:46:13;94212.44;;;11.98;100.00
39739;BME280;25422;48.286;8.484;2023-04-19T11:48:49;94211.50;;;12.44;100.00
39739;BME280;25422;48.286;8.484;2023-04-19T11:51:16;94208.50;;;11.94;100.00
39739;BME280;25422;48.286;8.484;2023-04-19T11:53:41;94213.59;;;11.72;100.00
39739;BME280;25422;48.286;8.484;2023-04-19T11:56:08;94207.91;;;11.84;100.00
39739;BME280;25422;48.286;8.484;2023-04-19T11:58:40;94194.31;;;12.26;100.00
39739;BME280;25422;48.286;8.484;2023-04-19T12:03:47;94191.94;;;14.71;75.65
39739;BME280;25422;48.286;8.484;2023-04-19T12:06:18;94187.66;;;15.12;72.54
39739;BME280;25422;48.286;8.484;2023-04-19T12:08:48;94186.63;;;14.08;85.93
39739;BME280;25422;48.286;8.484;2023-04-19T12:11:15;94187.53;;;13.13;85.87
39739;BME280;25422;48.286;8.484;2023-04-19T12:13:41;94182.78;;;13.82;84.63
39739;BME280;25422;48.286;8.484;2023-04-19T12:16:09;94182.91;;;13.15;91.79
39739;BME280;25422;48.286;8.484;2023-04-19T12:18:48;94176.53;;;13.40;93.18
39739;BME280;25422;48.286;8.484;2023-04-19T12:21:27;94173.09;;;13.61;85.19
39739;BME280;25422;48.286;8.484;2023-04-19T12:23:55;94173.84;;;13.76;84.49
39739;BME280;25422;48.286;8.484;2023-04-19T12:26:20;94175.47;;;12.82;94.26
39739;BME280;25422;48.286;8.484;2023-04-19T12:28:46;94176.50;;;13.03;97.06
39739;BME280;25422;48.286;8.484;2023-04-19T12:31:11;94181.16;;;12.11;100.00
39739;BME280;25422;48.286;8.484;2023-04-19T12:33:37;94176.66;;;12.35;100.00
39739;BME280;25422;48.286;8.484;2023-04-19T12:36:02;94174.03;;;12.20;100.00
39739;BME280;25422;48.286;8.484;2023-04-19T12:38:28;94170.41;;;12.06;100.00
39739;BME280;25422;48.286;8.484;2023-04-19T12:40:53;94173.25;;;11.73;100.00
39739;BME280;25422;48.286;8.484;2023-04-19T12:43:18;94164.78;;;11.71;100.00
39739;BME280;25422;48.286;8.484;2023-04-19T12:45:44;94163.03;;;12.02;100.00
39739;BME280;25422;48.286;8.484;2023-04-19T12:48:09;94166.25;;;11.89;100.00
39739;BME280;25422;48.286;8.484;2023-04-19T12:50:35;94154.56;;;12.00;100.00
39739;BME280;25422;48.286;8.484;2023-04-19T12:53:00;94147.59;;;12.52;99.39
39739;BME280;25422;48.286;8.484;2023-04-19T12:55:25;94146.78;;;12.06;100.00
39739;BME280;25422;48.286;8.484;2023-04-19T12:57:51;94144.00;;;12.08;100.00
39739;BME280;25422;48.286;8.484;2023-04-19T13:00:16;94145.44;;;12.10;100.00
39739;BME280;25422;48.286;8.484;2023-04-19T13:02:42;94147.78;;;11.67;100.00
39739;BME280;25422;48.286;8.484;2023-04-19T13:05:08;94146.81;;;11.83;100.00
39739;BME280;25422;48.286;8.484;2023-04-19T13:07:33;94145.44;;;11.72;100.00
39739;BME280;25422;48.286;8.484;2023-04-19T13:09:58;94142.19;;;11.47;100.00
39739;BME280;25422;48.286;8.484;2023-04-19T13:12:24;94139.16;;;11.35;100.00
39739;BME280;25422;48.286;8.484;2023-04-19T13:14:50;94140.06;;;11.51;100.00
39739;BME280;25422;48.286;8.484;2023-04-19T13:17:19;94141.91;;;11.19;100.00